createdAt,value
2022-09-30T00:04:32.380Z,1006.3
2022-09-30T00:09:32.388Z,1006.2
2022-09-30T00:14:32.365Z,1006.3
2022-09-30T00:19:32.364Z,1006.3
2022-09-30T00:24:32.366Z,1006.3
2022-09-30T00:29:32.358Z,1006.2
2022-09-30T00:34:32.361Z,1006.3
2022-09-30T00:39:32.365Z,1006.3
2022-09-30T00:44:32.367Z,1006.4
2022-09-30T00:49:32.368Z,1006.3
2022-09-30T00:54:32.378Z,1006.2
2022-09-30T00:59:32.375Z,1006.1
2022-09-30T01:04:32.369Z,1006.1
2022-09-30T01:09:32.447Z,1006.2
2022-09-30T01:14:32.375Z,1006.2
2022-09-30T01:19:32.381Z,1006.3
2022-09-30T01:24:32.429Z,1006.3
2022-09-30T01:29:32.392Z,1006.3
2022-09-30T01:34:32.401Z,1006.3
2022-09-30T01:39:32.376Z,1006.3
2022-09-30T01:44:32.456Z,1006.3
2022-09-30T01:49:32.375Z,1006.3
2022-09-30T01:54:32.388Z,1006.2
2022-09-30T01:59:32.388Z,1006.2
2022-09-30T02:04:32.398Z,1006.2
2022-09-30T02:09:32.482Z,1006.1
2022-09-30T02:14:32.397Z,1006.1
2022-09-30T02:19:32.369Z,1006.1
2022-09-30T02:24:32.391Z,1006.1
2022-09-30T02:29:32.397Z,1006.0
2022-09-30T02:34:32.387Z,1006.0
2022-09-30T02:39:32.392Z,1005.9
2022-09-30T02:44:32.443Z,1006.0
2022-09-30T02:49:32.399Z,1005.9
2022-09-30T02:54:32.401Z,1006.0
2022-09-30T02:59:32.453Z,1005.9
2022-09-30T03:04:32.403Z,1006.0
2022-09-30T03:09:32.515Z,1006.0
2022-09-30T03:14:32.393Z,1005.9
2022-09-30T03:19:32.409Z,1005.8
2022-09-30T03:24:32.405Z,1005.7
2022-09-30T03:29:32.403Z,1005.7
2022-09-30T03:34:32.408Z,1005.6
2022-09-30T03:39:32.413Z,1005.5
2022-09-30T03:44:32.403Z,1005.5
2022-09-30T03:49:32.415Z,1005.4
2022-09-30T03:54:32.421Z,1005.4
2022-09-30T03:59:32.470Z,1005.4
2022-09-30T04:04:32.408Z,1005.4
2022-09-30T04:09:32.498Z,1005.3
2022-09-30T04:14:32.422Z,1005.2
2022-09-30T04:19:32.420Z,1005.0
2022-09-30T04:24:32.428Z,1005.1
2022-09-30T04:29:32.430Z,1005.0
2022-09-30T04:34:32.411Z,1005.0
2022-09-30T04:39:32.485Z,1004.9
2022-09-30T04:44:32.419Z,1004.9
2022-09-30T04:49:32.458Z,1004.9
2022-09-30T04:54:32.433Z,1004.8
2022-09-30T04:59:32.477Z,1004.8
2022-09-30T05:04:32.494Z,1004.8
2022-09-30T05:09:32.540Z,1004.7
2022-09-30T05:14:32.434Z,1004.6
2022-09-30T05:19:32.461Z,1004.5
2022-09-30T05:24:32.436Z,1004.4
2022-09-30T05:29:32.492Z,1004.3
2022-09-30T05:34:32.434Z,1004.2
2022-09-30T05:39:32.440Z,1004.1
2022-09-30T05:44:32.446Z,1004.1
2022-09-30T05:49:32.442Z,1004.0
2022-09-30T05:54:32.457Z,1003.9
2022-09-30T05:59:32.453Z,1003.9
2022-09-30T06:04:32.454Z,1003.7
2022-09-30T06:09:32.519Z,1003.8
2022-09-30T06:14:32.462Z,1003.8
2022-09-30T06:19:32.458Z,1003.7
2022-09-30T06:24:32.451Z,1003.7
2022-09-30T06:29:32.462Z,1003.6
2022-09-30T06:34:32.454Z,1003.6
2022-09-30T06:39:32.468Z,1003.4
2022-09-30T06:44:33.658Z,1003.4
2022-09-30T06:49:43.506Z,1003.3
2022-09-30T06:54:32.475Z,1003.3
2022-09-30T06:59:32.468Z,1003.2
2022-09-30T07:04:32.464Z,1003.2
2022-09-30T07:09:32.523Z,1003.1
2022-09-30T07:14:32.471Z,1003.1
2022-09-30T07:19:32.474Z,1003.0
2022-09-30T07:24:32.485Z,1003.0
2022-09-30T07:29:44.601Z,1002.9
2022-09-30T07:34:32.466Z,1002.9
2022-09-30T07:39:32.502Z,1002.9
2022-09-30T07:44:32.475Z,1002.9
2022-09-30T07:49:32.700Z,1002.8
2022-09-30T07:54:32.485Z,1002.8
2022-09-30T07:59:32.479Z,1002.7
2022-09-30T08:04:32.475Z,1002.7
2022-09-30T08:09:32.537Z,1002.5
2022-09-30T08:14:32.509Z,1002.5
2022-09-30T08:19:32.481Z,1002.5
2022-09-30T08:24:32.506Z,1002.4
2022-09-30T08:29:54.296Z,1002.3
2022-09-30T08:34:32.502Z,1002.2
2022-09-30T08:39:32.495Z,1002.2
2022-09-30T08:44:32.504Z,1002.0
2022-09-30T08:49:32.490Z,1001.9
2022-09-30T08:54:34.564Z,1001.9
2022-09-30T08:59:32.489Z,1001.8
2022-09-30T09:04:32.551Z,1001.9
2022-09-30T09:09:32.505Z,1001.8
2022-09-30T09:14:32.508Z,1001.7
2022-09-30T09:19:32.485Z,1001.5
2022-09-30T09:24:32.578Z,1001.4
2022-09-30T09:29:32.498Z,1001.3
2022-09-30T09:34:34.826Z,1001.3
2022-09-30T09:39:32.503Z,1001.1
2022-09-30T09:44:32.512Z,1000.9
2022-09-30T09:49:32.497Z,1000.7
2022-09-30T09:54:32.510Z,1000.6
2022-09-30T09:59:32.478Z,1000.4
2022-09-30T10:04:32.538Z,1000.3
2022-09-30T10:09:32.513Z,1000.1
2022-09-30T10:14:32.531Z,1000.0
2022-09-30T10:19:32.520Z,999.8
2022-09-30T10:24:32.525Z,999.6
2022-09-30T10:29:32.538Z,999.6
2022-09-30T10:34:32.511Z,999.5
2022-09-30T10:39:32.526Z,999.3
2022-09-30T10:44:32.520Z,999.1
2022-09-30T10:49:32.528Z,999.0
2022-09-30T10:54:32.543Z,999.0
2022-09-30T10:59:32.529Z,998.8
2022-09-30T11:04:32.529Z,998.7
2022-09-30T11:09:32.570Z,998.6
2022-09-30T11:14:32.533Z,998.4
2022-09-30T11:19:32.537Z,998.3
2022-09-30T11:24:32.548Z,998.1
2022-09-30T11:29:32.547Z,998.0
2022-09-30T11:34:32.536Z,997.8
2022-09-30T11:39:32.545Z,997.7
2022-09-30T11:44:32.547Z,997.6
2022-09-30T11:49:32.531Z,997.5
2022-09-30T11:54:32.542Z,997.5
2022-09-30T11:59:32.536Z,997.2
2022-09-30T12:04:32.547Z,997.2
2022-09-30T12:09:32.551Z,997.1
2022-09-30T12:14:32.540Z,997.0
2022-09-30T12:19:32.551Z,996.9
2022-09-30T12:24:32.551Z,996.8
2022-09-30T12:29:32.554Z,996.7
2022-09-30T12:34:32.544Z,996.6
2022-09-30T12:39:32.580Z,996.6
2022-09-30T12:44:32.535Z,996.5
2022-09-30T12:49:32.554Z,996.6
2022-09-30T12:54:32.550Z,996.5
2022-09-30T12:59:32.553Z,996.4
2022-09-30T13:04:32.553Z,996.3
2022-09-30T13:09:32.562Z,996.2
2022-09-30T13:14:32.558Z,996.2
2022-09-30T13:19:32.552Z,996.0
2022-09-30T13:24:32.565Z,995.9
2022-09-30T13:29:32.557Z,995.7
2022-09-30T13:34:32.566Z,995.5
2022-09-30T13:39:32.562Z,995.3
2022-09-30T13:44:32.548Z,995.2
2022-09-30T13:49:32.574Z,995.1
2022-09-30T13:54:32.560Z,995.0
2022-09-30T13:59:32.574Z,994.9
2022-09-30T14:04:32.570Z,994.8
2022-09-30T14:09:32.562Z,994.8
2022-09-30T14:14:32.573Z,994.6
2022-09-30T14:19:32.576Z,994.6
2022-09-30T14:24:37.147Z,994.5
2022-09-30T14:29:32.573Z,994.2
2022-09-30T14:34:32.586Z,994.1
2022-09-30T14:39:32.582Z,994.0
2022-09-30T14:44:32.555Z,993.9
2022-09-30T14:49:34.196Z,993.9
2022-09-30T14:54:32.567Z,993.5
2022-09-30T14:59:32.569Z,992.6
2022-09-30T15:04:32.676Z,992.9
2022-09-30T15:09:32.582Z,992.1
2022-09-30T15:14:32.571Z,992.4
2022-09-30T15:19:32.579Z,992.3
2022-09-30T15:24:32.563Z,992.0
2022-09-30T15:29:32.572Z,991.7
2022-09-30T15:34:32.583Z,991.6
2022-09-30T15:39:32.577Z,991.6
2022-09-30T15:44:32.570Z,991.6
2022-09-30T15:49:32.628Z,991.6
2022-09-30T15:54:32.602Z,991.6
2022-09-30T15:59:32.587Z,991.6
2022-09-30T16:04:32.588Z,991.5
2022-09-30T16:09:32.574Z,991.2
2022-09-30T16:14:32.589Z,991.3
2022-09-30T16:19:32.588Z,991.2
2022-09-30T16:24:32.576Z,991.0
2022-09-30T16:29:32.593Z,991.1
2022-09-30T16:34:32.583Z,991.2
2022-09-30T16:39:32.586Z,991.3
2022-09-30T16:44:32.580Z,991.4
2022-09-30T16:49:32.602Z,991.2
2022-09-30T16:54:32.574Z,991.4
2022-09-30T16:59:32.596Z,991.3
2022-09-30T17:04:32.584Z,991.3
2022-09-30T17:09:32.588Z,991.2
2022-09-30T17:14:32.598Z,991.1
2022-09-30T17:19:32.603Z,991.0
2022-09-30T17:24:32.583Z,991.1
2022-09-30T17:29:33.172Z,991.1
2022-09-30T17:34:32.577Z,991.0
2022-09-30T17:39:32.594Z,990.9
2022-09-30T17:44:32.600Z,990.9
2022-09-30T17:49:32.592Z,991.0
2022-09-30T17:54:32.604Z,991.0
2022-09-30T17:59:32.608Z,991.1
2022-09-30T18:04:32.597Z,991.0
2022-09-30T18:09:32.645Z,991.0
2022-09-30T18:14:32.611Z,991.0
2022-09-30T18:19:32.649Z,991.1
2022-09-30T18:24:32.616Z,991.0
2022-09-30T18:29:32.638Z,991.1
2022-09-30T18:34:32.611Z,991.1
2022-09-30T18:39:32.626Z,991.1
2022-09-30T18:44:32.614Z,991.2
2022-09-30T18:49:32.614Z,991.3
2022-09-30T18:54:32.630Z,991.4
2022-09-30T18:59:32.653Z,991.3
2022-09-30T19:04:32.613Z,991.3
2022-09-30T19:09:32.637Z,991.2
2022-09-30T19:14:32.599Z,991.2
2022-09-30T19:19:32.610Z,991.2
2022-09-30T19:24:32.607Z,991.3
2022-09-30T19:29:32.603Z,991.3
2022-09-30T19:34:32.762Z,991.5
2022-09-30T19:39:43.073Z,991.5
2022-09-30T19:44:32.598Z,991.6
2022-09-30T19:49:32.607Z,991.7
2022-09-30T19:54:39.772Z,991.6
2022-09-30T19:59:32.620Z,991.6
2022-09-30T20:04:32.614Z,991.7
2022-09-30T20:09:32.611Z,991.7
2022-09-30T20:14:32.610Z,991.6
2022-09-30T20:19:32.618Z,991.7
2022-09-30T20:24:32.607Z,991.8
2022-09-30T20:29:32.641Z,991.9
2022-09-30T20:34:36.693Z,992.0
2022-09-30T20:39:32.616Z,992.0
2022-09-30T20:44:32.617Z,992.0
2022-09-30T20:49:32.608Z,992.0
2022-09-30T20:54:32.601Z,992.0
2022-09-30T20:59:32.637Z,992.1
2022-09-30T21:04:32.619Z,992.1
2022-09-30T21:09:32.615Z,992.2
2022-09-30T21:14:32.621Z,992.1
2022-09-30T21:19:32.625Z,992.2
2022-09-30T21:24:32.609Z,992.2
2022-09-30T21:29:32.641Z,992.2
2022-09-30T21:34:32.611Z,992.3
2022-09-30T21:39:32.618Z,992.3
2022-09-30T21:44:32.621Z,992.3
2022-09-30T21:49:32.624Z,992.2
2022-09-30T21:54:32.654Z,992.2
2022-09-30T21:59:32.638Z,992.3
2022-09-30T22:04:32.670Z,992.3
2022-09-30T22:09:37.177Z,992.3
2022-09-30T22:14:32.623Z,992.4
2022-09-30T22:19:32.619Z,992.4
2022-09-30T22:24:32.646Z,992.4
2022-09-30T22:29:32.622Z,992.4
2022-09-30T22:34:32.619Z,992.5
2022-09-30T22:39:32.629Z,992.6
2022-09-30T22:44:32.643Z,992.6
2022-09-30T22:49:32.640Z,992.7
2022-09-30T22:54:32.635Z,992.8
2022-09-30T22:59:32.630Z,992.8
2022-09-30T23:04:32.632Z,992.8
2022-09-30T23:09:32.628Z,992.8
2022-09-30T23:14:32.665Z,992.9
2022-09-30T23:19:32.630Z,992.8
2022-09-30T23:24:32.636Z,992.8
2022-09-30T23:29:32.636Z,992.8
2022-09-30T23:34:32.650Z,992.8
2022-09-30T23:39:32.630Z,992.8
2022-09-30T23:44:32.642Z,992.8
2022-09-30T23:49:32.624Z,992.8
2022-09-30T23:54:32.635Z,992.8
2022-09-30T23:59:32.640Z,992.7
